Latest Weather Observations for Roseworthy

IDS60901

Issued at 4:11 pm CDT Friday 24 February 2017 (issued every 10 minutes, with the page automatically refreshed every 10 minutes)

About weather observations | Map of Adelaide area stations | Latest observations for Adelaide area | Other Formats
Station Details ID: 023122 Name: ROSEWORTHY AWS Lat: -34.51 Lon: 138.68 Height: 65.0 m
Data from the previous 72 hours. | See also: Recent months at Roseworthy
Date/Time
CDT
Temp
°C
App
Temp
°C
Dew
Point
°C
Rel
Hum
%
Delta-T
°C
Wind Press
QNH
hPa
Press
MSL
hPa
Rain since
9am
mm
Dir  Spd
km/h
Gust
km/h
Spd
kts
Gust
kts
24/04:00pm 24.7 19.5 10.2 40 8.0 WSW 28 39 15 21 1022.8 1022.6 0.0
24/03:30pm 24.3 19.2 10.6 42 7.6 WSW 28 43 15 23 1023.3 1023.1 0.0
24/03:00pm 24.5 20.4 10.0 40 8.0 WSW 22 35 12 19 1023.7 1023.5 0.0
24/02:30pm 24.3 19.7 9.5 39 8.0 WSW 24 33 13 18 1024.0 1023.8 0.0
24/02:00pm 24.5 22.1 8.5 36 8.6 SSW 11 22 6 12 1024.3 1024.1 0.0
24/01:30pm 23.7 21.0 8.9 39 7.9 SSW 13 20 7 11 1024.6 1024.4 0.0
24/01:00pm 22.4 18.6 7.4 38 7.8 SSE 17 24 9 13 1024.9 1024.7 0.0
24/12:30pm 22.0 19.5 8.2 41 7.2 SE 11 20 6 11 1025.3 1025.1 0.0
24/12:00pm 21.8 18.9 8.3 42 7.1 E 13 24 7 13 1025.6 1025.4 0.0
24/11:30am 21.1 18.3 8.7 45 6.5 ESE 13 24 7 13 1026.0 1025.8 0.0
24/11:00am 20.9 17.9 9.2 47 6.2 ESE 15 24 8 13 1026.2 1026.0 0.0
24/10:30am 19.2 15.7 8.8 51 5.4 SE 17 24 9 13 1026.4 1026.2 0.0
24/10:00am 18.7 15.4 9.5 55 4.9 SE 17 22 9 12 1026.4 1026.2 0.0
24/09:30am 17.5 14.9 9.2 58 4.3 SE 13 20 7 11 1026.5 1026.3 0.0
24/09:00am 16.5 15.3 9.4 63 3.7 SE 6 11 3 6 1026.4 1026.2 0.0
24/08:30am 14.9 13.8 10.5 75 2.3 E 7 9 4 5 1026.1 1025.9 0.0
24/08:00am 11.8 10.6 10.2 90 0.8 ENE 7 9 4 5 1025.9 1025.7 0.0
24/07:30am 8.0 5.9 6.6 91 0.6 E 7 9 4 5 1025.6 1025.4 0.0
24/07:00am 7.2 4.5 5.7 90 0.7 ENE 9 11 5 6 1025.2 1025.0 0.0
24/06:30am 7.1 4.3 5.3 88 0.8 E 9 11 5 6 1024.7 1024.5 0.0
24/06:00am 8.2 6.0 6.3 88 0.9 SE 7 9 4 5 1024.5 1024.3 0.0
24/05:30am 8.8 6.4 6.9 88 0.9 ESE 9 11 5 6 1024.2 1024.0 0.0
24/05:00am 8.8 6.8 7.3 90 0.7 ESE 7 9 4 5 1024.0 1023.8 0.0
24/04:30am 8.4 6.4 6.9 90 0.7 ESE 7 9 4 5 1023.8 1023.6 0.0
24/04:00am 8.4 6.3 6.7 89 0.8 ENE 7 9 4 5 1023.8 1023.6 0.0
24/03:30am 8.8 6.9 6.9 88 0.9 NE 6 11 3 6 1023.7 1023.5 0.0
24/03:00am 9.2 8.6 7.2 87 0.9 CALM 0 0 0 0 1023.8 1023.6 0.0
24/02:30am 9.6 9.0 7.4 86 1.0 CALM 0 0 0 0 1023.8 1023.6 0.0
24/02:00am 10.6 9.2 8.7 88 0.9 ENE 6 7 3 4 1023.7 1023.5 0.0
24/01:30am 10.4 9.6 8.2 86 1.1 ESE 2 7 1 4 1023.7 1023.5 0.0
24/01:00am 10.9 9.7 8.1 83 1.4 SE 4 6 2 3 1023.8 1023.6 0.0
24/12:30am 12.8 11.6 9.4 80 1.7 SE 6 9 3 5 1023.7 1023.5 0.0
24/12:00am 14.3 12.8 10.7 79 1.9 SE 9 11 5 6 1023.7 1023.5 0.0
 
Date/Time
CDT
Temp
°C
App
Temp
°C
Dew
Point
°C
Rel
Hum
%
Delta-T
°C
Wind Press
QNH
hPa
Press
MSL
hPa
Rain since
9am
mm
Dir  Spd
km/h
Gust
km/h
Spd
kts
Gust
kts
23/11:30pm 15.2 13.4 10.8 75 2.3 SE 11 17 6 9 1023.6 1023.4 0.0
23/11:00pm 15.9 13.8 11.1 73 2.6 SE 13 17 7 9 1023.5 1023.3 0.0
23/10:30pm 16.2 14.9 12.6 79 2.0 S 11 17 6 9 1023.2 1023.0 0.0
23/10:00pm 16.0 14.5 11.8 76 2.3 SW 11 13 6 7 1022.9 1022.7 0.0
23/09:30pm 16.8 15.3 11.9 73 2.7 SW 11 15 6 8 1022.8 1022.6 0.0
23/09:00pm 17.6 15.8 12.1 70 3.0 SW 13 17 7 9 1022.5 1022.2 0.0
23/08:30pm 18.1 15.8 11.9 67 3.4 SW 15 19 8 10 1022.0 1021.7 0.0
23/08:00pm 19.0 16.3 11.6 62 4.1 SW 17 24 9 13 1021.5 1021.2 0.0
23/07:30pm 20.4 17.0 10.5 53 5.4 SW 19 24 10 13 1021.3 1021.0 0.0
23/07:00pm 21.1 16.9 9.7 48 6.1 SW 22 30 12 16 1021.0 1020.7 0.0
23/06:30pm 22.0 17.7 9.5 45 6.7 WSW 22 30 12 16 1020.8 1020.5 0.0
23/06:00pm 22.8 19.2 10.6 46 6.7 WSW 20 30 11 16 1020.6 1020.3 0.0
23/05:30pm 23.1 19.1 10.5 45 6.9 SW 22 33 12 18 1020.4 1020.1 0.0
23/05:00pm 24.2 20.2 9.0 38 8.2 WSW 20 32 11 17 1020.2 1019.9 0.0
23/04:30pm 24.5 20.7 8.9 37 8.4 SW 19 30 10 16 1020.1 1019.8 0.0
23/04:00pm 24.4 20.4 9.2 38 8.3 SW 20 28 11 15 1020.0 1019.7 0.0
23/03:30pm 25.2 21.3 9.5 37 8.6 WSW 20 32 11 17 1020.2 1019.9 0.0
23/03:00pm 23.9 20.1 9.9 41 7.7 WSW 20 32 11 17 1020.2 1019.9 0.0
23/02:30pm 24.3 21.9 10.2 41 7.8 SW 13 24 7 13 1020.2 1019.9 0.0
23/02:00pm 24.8 22.8 11.4 43 7.6 WSW 13 26 7 14 1020.4 1020.1 0.0
23/01:30pm 25.0 23.0 11.6 43 7.6 W 13 20 7 11 1020.3 1020.0 0.0
23/01:00pm 23.2 20.2 10.6 45 7.0 SW 17 24 9 13 1020.4 1020.1 0.0
23/12:30pm 22.0 19.6 10.2 47 6.4 SSW 13 17 7 9 1020.6 1020.3 0.0
23/12:00pm 22.2 19.7 12.2 53 5.6 WSW 17 24 9 13 1020.8 1020.5 0.0
23/11:30am 21.3 18.9 11.3 53 5.5 SW 15 22 8 12 1020.9 1020.6 0.0
23/11:00am 21.7 20.1 12.8 57 5.1 SSW 13 20 7 11 1020.9 1020.6 0.0
23/10:30am 19.8 18.2 12.8 64 3.9 SSW 13 20 7 11 1020.9 1020.6 0.0
23/10:00am 19.4 17.5 12.9 66 3.7 SSE 15 20 8 11 1020.6 1020.3 0.0
23/09:30am 19.2 17.2 12.7 66 3.6 SW 15 22 8 12 1020.2 1019.9 0.0
23/09:00am 18.5 16.9 12.9 70 3.1 WNW 13 17 7 9 1020.0 1019.7 0.0
23/08:30am 16.9 15.6 12.4 75 2.5 NNW 11 13 6 7 1019.6 1019.3 0.0
23/08:00am 14.4 12.8 11.4 82 1.6 NNW 11 13 6 7 1019.2 1018.9 0.0
23/07:30am 12.3 10.4 10.4 88 1.0 N 11 13 6 7 1018.6 1018.3 0.0
23/07:00am 12.5 10.5 10.2 86 1.2 WNW 11 13 6 7 1018.1 1017.8 0.0
23/06:30am 12.3 10.1 9.5 83 1.4 WNW 11 13 6 7 1017.7 1017.4 0.0
23/06:00am 12.9 10.9 10.1 83 1.4 W 11 13 6 7 1017.4 1017.1 0.0
23/05:30am 13.7 10.2 10.9 83 1.5 W 20 24 11 13 1016.9 1016.6 0.0
23/05:00am 13.0 10.0 10.7 86 1.2 WNW 17 19 9 10 1016.9 1016.6 0.0
23/04:30am 12.8 10.5 10.3 85 1.3 WNW 13 17 7 9 1016.9 1016.6 0.0
23/04:00am 12.7 10.0 10.2 85 1.3 W 15 15 8 8 1016.7 1016.4 0.0
23/03:30am 12.5 10.0 9.7 83 1.4 W 13 17 7 9 1016.5 1016.2 0.0
23/03:00am 13.4 11.0 10.2 81 1.7 W 13 13 7 7 1016.6 1016.3 0.0
23/02:30am 15.4 13.1 11.6 78 2.1 WSW 15 19 8 10 1016.6 1016.3 0.0
23/02:00am 16.2 14.1 12.4 78 2.1 WSW 15 20 8 11 1016.7 1016.4 0.0
23/01:30am 16.4 14.6 12.2 76 2.3 WSW 13 19 7 10 1017.0 1016.7 0.0
23/01:00am 16.4 15.0 13.3 82 1.7 W 13 19 7 10 1017.0 1016.7 0.0
23/12:30am 15.1 13.3 12.2 83 1.6 W 13 13 7 7 1016.8 1016.5 0.0
23/12:00am 15.3 13.4 11.9 80 1.8 W 13 15 7 8 1016.6 1016.3 0.0
 
Date/Time
CDT
Temp
°C
App
Temp
°C
Dew
Point
°C
Rel
Hum
%
Delta-T
°C
Wind Press
QNH
hPa
Press
MSL
hPa
Rain since
9am
mm
Dir  Spd
km/h
Gust
km/h
Spd
kts
Gust
kts
22/11:30pm 15.7 13.9 12.1 79 2.0 W 13 15 7 8 1016.7 1016.4 0.0
22/11:00pm 15.8 13.8 11.6 76 2.3 WNW 13 15 7 8 1016.7 1016.4 0.0
22/10:30pm 15.6 13.8 11.0 74 2.5 W 11 15 6 8 1016.5 1016.2 0.0
22/10:00pm 16.5 14.6 10.6 68 3.1 W 11 15 6 8 1016.2 1015.9 0.0
22/09:30pm 17.6 15.7 10.5 63 3.8 W 11 15 6 8 1015.7 1015.4 0.0
22/09:00pm 18.9 16.7 10.7 59 4.4 WSW 13 19 7 10 1015.1 1014.8 0.0
22/08:30pm 19.9 16.7 10.0 53 5.3 WSW 17 26 9 14 1014.6 1014.3 0.0
22/08:00pm 20.9 17.0 9.5 48 6.1 WSW 20 26 11 14 1013.9 1013.6 0.0
22/07:30pm 22.1 17.5 9.6 45 6.8 WSW 24 37 13 20 1013.1 1012.9 0.0
22/07:00pm 22.9 17.0 9.0 41 7.5 WSW 30 39 16 21 1012.6 1012.4 0.0
22/06:30pm 23.7 17.8 8.9 39 8.0 WSW 30 41 16 22 1012.3 1012.1 0.0
22/06:00pm 24.7 18.8 10.6 41 7.9 WSW 32 50 17 27 1012.1 1011.9 0.0
22/05:30pm 25.5 17.8 7.1 31 9.7 W 37 50 20 27 1011.7 1011.5 0.0
22/05:00pm 25.9 18.7 6.0 28 10.3 WSW 33 46 18 25 1011.5 1011.3 0.0
22/04:30pm 25.4 18.0 6.6 30 9.8 WSW 35 52 19 28 1011.3 1011.1 0.0
22/04:03pm 27.0 19.4 5.9 26 11.0 W 35 54 19 29 1011.0 1010.8 0.0
22/04:00pm 26.3 18.6 5.3 26 10.8 W 35 50 19 27 1010.9 1010.7 0.0
22/03:42pm 27.0 19.0 5.9 26 11.0 W 37 56 20 30 1010.9 1010.7 0.0
22/03:30pm 27.1 18.7 5.4 25 11.2 W 39 56 21 30 1010.8 1010.6 0.0
22/03:00pm 26.4 18.8 7.4 30 10.1 WSW 37 56 20 30 1010.7 1010.5 0.0
22/02:59pm 26.1 18.5 7.7 31 9.8 WSW 37 56 20 30 1010.6 1010.4 0.0
22/02:30pm 27.2 19.5 8.6 31 10.2 W 39 50 21 27 1010.5 1010.3 0.0
22/02:14pm 27.8 20.7 8.1 29 10.7 W 35 54 19 29 1010.1 1009.9 0.0
22/02:01pm 29.6 22.8 7.5 25 12.0 NW 33 52 18 28 1010.0 1009.8 0.0
22/02:00pm 29.4 21.9 6.1 23 12.3 NW 35 52 19 28 1010.0 1009.8 0.0
22/01:39pm 28.6 21.8 7.8 27 11.3 WNW 33 52 18 28 1010.2 1010.0 0.0
22/01:30pm 28.9 21.9 8.6 28 11.2 WNW 35 50 19 27 1010.2 1010.0 0.0
22/01:10pm 27.9 22.2 9.7 32 10.2 WNW 30 48 16 26 1010.3 1010.1 0.0
22/01:00pm 27.6 21.2 9.4 32 10.1 WNW 33 48 18 26 1010.3 1010.1 0.0
22/12:45pm 27.3 21.0 9.6 33 9.8 W 33 54 18 29 1010.4 1010.2 0.0
22/12:30pm 26.6 21.4 11.5 39 8.6 W 30 44 16 24 1010.5 1010.3 0.0
22/12:00pm 25.7 20.0 12.9 45 7.5 W 35 44 19 24 1010.7 1010.5 0.0
22/11:30am 25.7 19.7 14.5 50 6.7 WSW 39 57 21 31 1011.1 1010.9 0.0
22/11:17am 25.4 19.1 14.5 51 6.5 WSW 41 61 22 33 1011.2 1011.0 0.0
22/11:00am 26.2 17.2 8.7 33 9.5 W 46 59 25 32 1010.9 1010.7 0.0
22/10:56am 27.4 20.5 15.7 48 7.2 W 46 61 25 33 1010.7 1010.5 0.0
22/10:30am 29.3 18.4 3.3 19 13.1 WNW 50 74 27 40 1010.4 1010.2 0.0
22/10:12am 30.6 18.4 0.1 14 14.7 NW 54 80 29 43 1009.6 1009.4 0.0
22/10:11am 30.8 18.6 0.2 14 14.8 NW 54 70 29 38 1009.6 1009.4 0.0
22/10:00am 32.0 21.1 1.2 14 15.3 NNW 48 67 26 36 1008.9 1008.6 0.0
22/09:47am 30.9 20.8 0.3 14 14.8 NNW 43 61 23 33 1008.7 1008.4 0.0
22/09:30am 30.3 20.3 0.8 15 14.4 N 43 57 23 31 1008.9 1008.6 0.0
22/09:13am 29.7 21.5 0.3 15 14.1 N 33 56 18 30 1008.7 1008.4 0.0
22/09:00am 28.4 21.1 2.6 19 12.8 N 30 43 16 23 1008.7 1008.4 0.0
22/08:30am 26.8 19.0 2.0 20 12.1 N 32 43 17 23 1008.4 1008.1 0.0
22/08:00am 25.3 17.5 1.4 21 11.3 NNE 32 46 17 25 1008.1 1007.8 0.0
22/07:30am 24.1 16.7 1.7 23 10.6 NNE 30 41 16 22 1008.0 1007.7 0.0
22/07:00am 23.2 15.4 1.5 24 10.2 NNE 32 43 17 23 1007.7 1007.4 0.0
22/06:30am 22.3 14.5 1.9 26 9.6 NNE 32 41 17 22 1007.7 1007.4 0.0
22/06:00am 22.2 14.5 2.3 27 9.4 NNE 32 39 17 21 1007.9 1007.6 0.0
22/05:30am 20.2 14.8 2.5 31 8.3 NE 20 24 11 13 1008.3 1008.0 0.0
22/05:00am 21.4 15.2 2.2 28 9.0 NE 24 30 13 16 1008.3 1008.0 0.0
22/04:30am 20.5 15.1 2.3 30 8.5 NE 20 26 11 14 1008.4 1008.1 0.0
22/04:00am 19.5 14.2 1.9 31 8.1 NE 19 24 10 13 1008.6 1008.3 0.0
22/03:30am 19.4 13.9 0.4 28 8.5 NE 19 24 10 13 1008.9 1008.6 0.0
22/03:00am 22.4 16.4 0.9 24 9.9 NE 22 28 12 15 1009.3 1009.1 0.0
22/02:30am 22.5 16.4 0.4 23 10.1 NE 22 28 12 15 1009.6 1009.4 0.0
22/02:00am 22.0 16.0 1.1 25 9.6 NE 22 28 12 15 1010.2 1010.0 0.0
22/01:30am 22.7 16.5 2.2 26 9.7 NE 24 32 13 17 1010.5 1010.3 0.0
22/01:00am 19.9 14.6 3.2 33 7.9 NE 20 24 11 13 1010.8 1010.6 0.0
22/12:30am 19.8 14.5 3.1 33 7.9 NE 20 24 11 13 1011.2 1011.0 0.0
22/12:00am 20.6 14.6 3.3 32 8.2 NE 24 30 13 16 1011.4 1011.2 0.0
 
Date/Time
CDT
Temp
°C
App
Temp
°C
Dew
Point
°C
Rel
Hum
%
Delta-T
°C
Wind Press
QNH
hPa
Press
MSL
hPa
Rain since
9am
mm
Dir  Spd
km/h
Gust
km/h
Spd
kts
Gust
kts
21/11:30pm 21.4 15.4 3.1 30 8.7 NE 24 30 13 16 1011.8 1011.6 0.0
21/11:00pm 22.1 16.1 3.3 29 9.0 NE 24 32 13 17 1012.1 1011.9 0.0
21/10:30pm 22.7 16.3 3.3 28 9.4 NE 26 33 14 18 1012.4 1012.2 0.0
21/10:00pm 22.4 16.8 3.5 29 9.1 NE 22 28 12 15 1012.5 1012.3 0.0
21/09:30pm 22.5 17.3 3.6 29 9.2 ENE 20 26 11 14 1012.4 1012.2 0.0
21/09:00pm 24.2 18.2 3.5 26 10.1 NE 24 35 13 19 1012.1 1011.9 0.0
21/08:30pm 25.3 19.7 3.3 24 10.8 NE 22 30 12 16 1011.9 1011.7 0.0
21/08:00pm 26.2 21.0 3.5 23 11.3 NE 20 28 11 15 1011.6 1011.4 0.0
21/07:30pm 28.1 22.4 3.0 20 12.5 NE 22 32 12 17 1011.5 1011.3 0.0
21/07:00pm 29.2 24.4 4.6 21 12.7 E 19 32 10 17 1011.4 1011.2 0.0
21/06:30pm 29.6 25.9 6.3 23 12.4 SSW 15 24 8 13 1011.4 1011.2 0.0
21/06:00pm 31.3 26.1 3.4 17 14.3 NNW 20 30 11 16 1011.4 1011.2 0.0
21/05:30pm 31.5 27.6 3.5 17 14.4 NNE 13 30 7 16 1011.7 1011.5 0.0
21/05:00pm 31.0 27.4 3.1 17 14.2 N 11 24 6 13 1011.9 1011.7 0.0
21/04:30pm 31.2 26.3 4.1 18 14.0 NNW 19 26 10 14 1012.4 1012.2 0.0

Latest Capital City Observations: Canberra | Sydney | Melbourne | Brisbane | Adelaide | Perth | Hobart | Darwin

Other Formats:

Comma delimited format used in spreadsheet applications
http://www.bom.gov.au/fwo/IDS60901/IDS60901.95671.axf

JavaScript Object Notation format (JSON) in row-major order
http://www.bom.gov.au/fwo/IDS60901/IDS60901.95671.json